sensor_id;sensor_type;location;lat;lon;timestamp;temperature;humidity
22069;DHT22;13887;57.196;-2.100;2023-07-31T00:00:17;16.75;74.18
22069;DHT22;13887;57.196;-2.100;2023-07-31T00:02:44;16.74;74.02
22069;DHT22;13887;57.196;-2.100;2023-07-31T00:05:11;16.76;74.09
22069;DHT22;13887;57.196;-2.100;2023-07-31T00:07:38;16.73;73.93
22069;DHT22;13887;57.196;-2.100;2023-07-31T00:10:06;16.71;74.18
22069;DHT22;13887;57.196;-2.100;2023-07-31T00:12:33;16.69;74.15
22069;DHT22;13887;57.196;-2.100;2023-07-31T00:15:01;16.70;74.14
22069;DHT22;13887;57.196;-2.100;2023-07-31T00:17:30;16.70;74.12
22069;DHT22;13887;57.196;-2.100;2023-07-31T00:19:57;16.69;74.23
22069;DHT22;13887;57.196;-2.100;2023-07-31T00:22:24;16.69;74.34
22069;DHT22;13887;57.196;-2.100;2023-07-31T00:24:51;16.70;74.24
22069;DHT22;13887;57.196;-2.100;2023-07-31T00:27:18;16.65;74.28
22069;DHT22;13887;57.196;-2.100;2023-07-31T00:29:45;16.63;74.47
22069;DHT22;13887;57.196;-2.100;2023-07-31T00:32:12;16.61;74.60
22069;DHT22;13887;57.196;-2.100;2023-07-31T00:34:40;16.60;74.70
22069;DHT22;13887;57.196;-2.100;2023-07-31T00:37:07;16.57;74.93
22069;DHT22;13887;57.196;-2.100;2023-07-31T00:39:34;16.57;75.12
22069;DHT22;13887;57.196;-2.100;2023-07-31T00:42:02;16.56;75.33
22069;DHT22;13887;57.196;-2.100;2023-07-31T00:44:31;16.56;75.36
22069;DHT22;13887;57.196;-2.100;2023-07-31T00:46:59;16.56;75.28
22069;DHT22;13887;57.196;-2.100;2023-07-31T00:49:27;16.55;75.31
22069;DHT22;13887;57.196;-2.100;2023-07-31T00:51:55;16.51;75.55
22069;DHT22;13887;57.196;-2.100;2023-07-31T00:54:25;16.47;75.93
22069;DHT22;13887;57.196;-2.100;2023-07-31T00:56:53;16.45;76.13
22069;DHT22;13887;57.196;-2.100;2023-07-31T00:59:21;16.40;76.34
22069;DHT22;13887;57.196;-2.100;2023-07-31T01:01:48;16.39;76.32
22069;DHT22;13887;57.196;-2.100;2023-07-31T01:04:17;16.35;76.34
22069;DHT22;13887;57.196;-2.100;2023-07-31T01:09:29;16.35;76.28
22069;DHT22;13887;57.196;-2.100;2023-07-31T01:12:04;16.34;76.33
22069;DHT22;13887;57.196;-2.100;2023-07-31T01:14:33;16.36;76.34
22069;DHT22;13887;57.196;-2.100;2023-07-31T01:17:00;16.39;76.17
22069;DHT22;13887;57.196;-2.100;2023-07-31T01:19:28;16.37;75.96
22069;DHT22;13887;57.196;-2.100;2023-07-31T01:24:59;16.33;76.35
22069;DHT22;13887;57.196;-2.100;2023-07-31T01:27:32;16.36;76.26
22069;DHT22;13887;57.196;-2.100;2023-07-31T01:30:17;16.37;75.71
22069;DHT22;13887;57.196;-2.100;2023-07-31T01:32:47;16.37;76.00
22069;DHT22;13887;57.196;-2.100;2023-07-31T01:35:15;16.36;75.86
22069;DHT22;13887;57.196;-2.100;2023-07-31T01:37:43;16.40;75.58
22069;DHT22;13887;57.196;-2.100;2023-07-31T01:40:10;16.42;75.23
22069;DHT22;13887;57.196;-2.100;2023-07-31T01:42:37;16.41;75.13
22069;DHT22;13887;57.196;-2.100;2023-07-31T01:45:05;16.35;75.22
22069;DHT22;13887;57.196;-2.100;2023-07-31T01:47:32;16.36;75.41
22069;DHT22;13887;57.196;-2.100;2023-07-31T01:49:59;16.39;75.12
22069;DHT22;13887;57.196;-2.100;2023-07-31T01:52:27;16.35;75.04
22069;DHT22;13887;57.196;-2.100;2023-07-31T01:54:55;16.30;75.27
22069;DHT22;13887;57.196;-2.100;2023-07-31T01:57:23;16.30;75.37
22069;DHT22;13887;57.196;-2.100;2023-07-31T01:59:50;16.31;75.12
22069;DHT22;13887;57.196;-2.100;2023-07-31T02:02:20;16.28;75.07
22069;DHT22;13887;57.196;-2.100;2023-07-31T02:04:47;16.26;75.15
22069;DHT22;13887;57.196;-2.100;2023-07-31T02:07:15;16.26;75.06
22069;DHT22;13887;57.196;-2.100;2023-07-31T02:09:42;16.26;75.07
22069;DHT22;13887;57.196;-2.100;2023-07-31T02:12:09;16.27;74.91
22069;DHT22;13887;57.196;-2.100;2023-07-31T02:14:36;16.27;74.87
22069;DHT22;13887;57.196;-2.100;2023-07-31T02:17:04;16.27;74.75
22069;DHT22;13887;57.196;-2.100;2023-07-31T02:19:31;16.26;74.63
22069;DHT22;13887;57.196;-2.100;2023-07-31T02:21:58;16.21;74.67
22069;DHT22;13887;57.196;-2.100;2023-07-31T02:24:25;16.20;74.86
22069;DHT22;13887;57.196;-2.100;2023-07-31T02:26:52;16.22;74.96
22069;DHT22;13887;57.196;-2.100;2023-07-31T02:29:19;16.20;74.92
22069;DHT22;13887;57.196;-2.100;2023-07-31T02:31:47;16.18;75.09
22069;DHT22;13887;57.196;-2.100;2023-07-31T02:34:14;16.16;75.03
22069;DHT22;13887;57.196;-2.100;2023-07-31T02:36:41;16.13;75.10
22069;DHT22;13887;57.196;-2.100;2023-07-31T02:39:08;16.12;75.23
22069;DHT22;13887;57.196;-2.100;2023-07-31T02:41:35;16.12;75.31
22069;DHT22;13887;57.196;-2.100;2023-07-31T02:44:02;16.13;75.19
22069;DHT22;13887;57.196;-2.100;2023-07-31T02:46:29;16.11;75.16
22069;DHT22;13887;57.196;-2.100;2023-07-31T02:48:57;16.05;75.62
22069;DHT22;13887;57.196;-2.100;2023-07-31T02:51:24;16.03;76.05
22069;DHT22;13887;57.196;-2.100;2023-07-31T02:53:51;16.00;76.28
22069;DHT22;13887;57.196;-2.100;2023-07-31T02:56:18;15.98;76.60
22069;DHT22;13887;57.196;-2.100;2023-07-31T02:58:45;15.98;76.66
22069;DHT22;13887;57.196;-2.100;2023-07-31T03:01:12;15.97;76.73
22069;DHT22;13887;57.196;-2.100;2023-07-31T03:03:41;15.95;76.76
22069;DHT22;13887;57.196;-2.100;2023-07-31T03:06:08;15.95;76.92
22069;DHT22;13887;57.196;-2.100;2023-07-31T03:08:36;15.92;76.98
22069;DHT22;13887;57.196;-2.100;2023-07-31T03:11:03;15.89;77.19
22069;DHT22;13887;57.196;-2.100;2023-07-31T03:13:30;15.88;77.34
22069;DHT22;13887;57.196;-2.100;2023-07-31T03:15:57;15.89;77.30
22069;DHT22;13887;57.196;-2.100;2023-07-31T03:18:24;15.83;77.63
22069;DHT22;13887;57.196;-2.100;2023-07-31T03:20:51;15.83;77.79
22069;DHT22;13887;57.196;-2.100;2023-07-31T03:23:19;15.83;77.76
22069;DHT22;13887;57.196;-2.100;2023-07-31T03:26:00;15.82;77.83
22069;DHT22;13887;57.196;-2.100;2023-07-31T03:28:28;15.78;77.83
22069;DHT22;13887;57.196;-2.100;2023-07-31T03:30:55;15.76;78.04
22069;DHT22;13887;57.196;-2.100;2023-07-31T03:33:22;15.76;78.08
22069;DHT22;13887;57.196;-2.100;2023-07-31T03:35:50;15.75;78.15
22069;DHT22;13887;57.196;-2.100;2023-07-31T03:38:17;15.75;78.15
22069;DHT22;13887;57.196;-2.100;2023-07-31T03:40:44;15.75;78.05
22069;DHT22;13887;57.196;-2.100;2023-07-31T03:43:12;15.74;78.00
22069;DHT22;13887;57.196;-2.100;2023-07-31T03:45:39;15.72;78.18
22069;DHT22;13887;57.196;-2.100;2023-07-31T03:48:06;15.76;78.06
22069;DHT22;13887;57.196;-2.100;2023-07-31T03:50:34;15.80;77.50
22069;DHT22;13887;57.196;-2.100;2023-07-31T03:53:02;15.78;77.51
22069;DHT22;13887;57.196;-2.100;2023-07-31T03:55:29;15.74;77.60
22069;DHT22;13887;57.196;-2.100;2023-07-31T03:57:56;15.71;77.82
22069;DHT22;13887;57.196;-2.100;2023-07-31T04:00:23;15.71;77.92
22069;DHT22;13887;57.196;-2.100;2023-07-31T04:02:50;15.69;78.00
22069;DHT22;13887;57.196;-2.100;2023-07-31T04:05:17;15.76;77.66
22069;DHT22;13887;57.196;-2.100;2023-07-31T04:07:44;15.81;77.10
22069;DHT22;13887;57.196;-2.100;2023-07-31T04:10:11;15.82;76.88
22069;DHT22;13887;57.196;-2.100;2023-07-31T04:12:39;15.77;76.98
22069;DHT22;13887;57.196;-2.100;2023-07-31T04:15:07;15.78;76.73
22069;DHT22;13887;57.196;-2.100;2023-07-31T04:17:34;15.77;76.82
22069;DHT22;13887;57.196;-2.100;2023-07-31T04:20:01;15.77;76.70
22069;DHT22;13887;57.196;-2.100;2023-07-31T04:22:30;15.82;76.54
22069;DHT22;13887;57.196;-2.100;2023-07-31T04:24:57;15.81;76.18
22069;DHT22;13887;57.196;-2.100;2023-07-31T04:27:25;15.77;76.18
22069;DHT22;13887;57.196;-2.100;2023-07-31T04:29:52;15.74;76.05
22069;DHT22;13887;57.196;-2.100;2023-07-31T04:32:19;15.72;75.95
22069;DHT22;13887;57.196;-2.100;2023-07-31T04:34:47;15.73;75.89
22069;DHT22;13887;57.196;-2.100;2023-07-31T04:37:14;15.70;75.94
22069;DHT22;13887;57.196;-2.100;2023-07-31T04:39:41;15.71;75.84
22069;DHT22;13887;57.196;-2.100;2023-07-31T04:42:08;15.73;75.86
22069;DHT22;13887;57.196;-2.100;2023-07-31T04:44:35;15.74;75.72
22069;DHT22;13887;57.196;-2.100;2023-07-31T04:47:03;15.70;75.93
22069;DHT22;13887;57.196;-2.100;2023-07-31T04:49:31;15.66;76.31
22069;DHT22;13887;57.196;-2.100;2023-07-31T04:51:58;15.63;76.66
22069;DHT22;13887;57.196;-2.100;2023-07-31T04:54:25;15.66;76.65
22069;DHT22;13887;57.196;-2.100;2023-07-31T04:56:53;15.67;76.98
22069;DHT22;13887;57.196;-2.100;2023-07-31T04:59:20;15.63;77.18
22069;DHT22;13887;57.196;-2.100;2023-07-31T05:01:47;15.63;77.47
22069;DHT22;13887;57.196;-2.100;2023-07-31T05:04:15;15.63;77.53
22069;DHT22;13887;57.196;-2.100;2023-07-31T05:06:43;15.68;77.57
22069;DHT22;13887;57.196;-2.100;2023-07-31T05:09:10;15.68;77.54
22069;DHT22;13887;57.196;-2.100;2023-07-31T05:11:37;15.69;77.69
22069;DHT22;13887;57.196;-2.100;2023-07-31T05:14:04;15.70;77.72
22069;DHT22;13887;57.196;-2.100;2023-07-31T05:16:31;15.74;77.50
22069;DHT22;13887;57.196;-2.100;2023-07-31T05:18:59;15.76;77.38
22069;DHT22;13887;57.196;-2.100;2023-07-31T05:21:26;15.81;77.37
22069;DHT22;13887;57.196;-2.100;2023-07-31T05:23:53;15.80;77.57
22069;DHT22;13887;57.196;-2.100;2023-07-31T05:26:20;15.82;77.38
22069;DHT22;13887;57.196;-2.100;2023-07-31T05:28:47;15.87;77.18
22069;DHT22;13887;57.196;-2.100;2023-07-31T05:31:14;15.88;77.34
22069;DHT22;13887;57.196;-2.100;2023-07-31T05:33:42;15.91;77.10
22069;DHT22;13887;57.196;-2.100;2023-07-31T05:36:09;15.90;77.24
22069;DHT22;13887;57.196;-2.100;2023-07-31T05:38:36;15.89;77.79
22069;DHT22;13887;57.196;-2.100;2023-07-31T05:41:03;15.88;77.92
22069;DHT22;13887;57.196;-2.100;2023-07-31T05:43:30;15.87;77.95
22069;DHT22;13887;57.196;-2.100;2023-07-31T05:45:57;15.86;78.44
22069;DHT22;13887;57.196;-2.100;2023-07-31T05:48:24;15.85;78.59
22069;DHT22;13887;57.196;-2.100;2023-07-31T05:50:52;15.87;78.69
22069;DHT22;13887;57.196;-2.100;2023-07-31T05:53:19;15.90;78.65
22069;DHT22;13887;57.196;-2.100;2023-07-31T05:55:46;15.89;78.56
22069;DHT22;13887;57.196;-2.100;2023-07-31T05:58:13;15.88;78.98
22069;DHT22;13887;57.196;-2.100;2023-07-31T06:00:40;15.91;79.17
22069;DHT22;13887;57.196;-2.100;2023-07-31T06:03:08;15.91;79.42
22069;DHT22;13887;57.196;-2.100;2023-07-31T06:05:35;15.89;79.98
22069;DHT22;13887;57.196;-2.100;2023-07-31T06:08:02;15.90;80.00
22069;DHT22;13887;57.196;-2.100;2023-07-31T06:10:29;15.91;79.91
22069;DHT22;13887;57.196;-2.100;2023-07-31T06:12:57;15.93;80.25
22069;DHT22;13887;57.196;-2.100;2023-07-31T06:15:24;15.91;80.97
22069;DHT22;13887;57.196;-2.100;2023-07-31T06:17:51;15.91;80.84
22069;DHT22;13887;57.196;-2.100;2023-07-31T06:20:19;15.91;81.14
22069;DHT22;13887;57.196;-2.100;2023-07-31T06:22:47;15.91;81.27
22069;DHT22;13887;57.196;-2.100;2023-07-31T06:25:14;15.95;81.34
22069;DHT22;13887;57.196;-2.100;2023-07-31T06:27:42;15.92;81.40
22069;DHT22;13887;57.196;-2.100;2023-07-31T06:30:10;15.95;81.65
22069;DHT22;13887;57.196;-2.100;2023-07-31T06:32:37;15.97;81.58
22069;DHT22;13887;57.196;-2.100;2023-07-31T06:35:05;15.98;81.57
22069;DHT22;13887;57.196;-2.100;2023-07-31T06:37:32;15.97;81.39
22069;DHT22;13887;57.196;-2.100;2023-07-31T06:40:02;15.98;81.46
22069;DHT22;13887;57.196;-2.100;2023-07-31T06:42:32;16.00;81.42
22069;DHT22;13887;57.196;-2.100;2023-07-31T06:44:59;16.01;81.30
22069;DHT22;13887;57.196;-2.100;2023-07-31T06:47:26;16.04;80.92
22069;DHT22;13887;57.196;-2.100;2023-07-31T06:49:53;16.04;81.09
22069;DHT22;13887;57.196;-2.100;2023-07-31T06:52:20;16.06;81.20
22069;DHT22;13887;57.196;-2.100;2023-07-31T06:55:17;16.06;81.39
22069;DHT22;13887;57.196;-2.100;2023-07-31T06:57:51;16.10;81.31
22069;DHT22;13887;57.196;-2.100;2023-07-31T07:00:19;16.08;81.07
22069;DHT22;13887;57.196;-2.100;2023-07-31T07:02:47;16.10;81.55
22069;DHT22;13887;57.196;-2.100;2023-07-31T07:05:15;16.11;81.42
22069;DHT22;13887;57.196;-2.100;2023-07-31T07:07:43;16.29;81.65
22069;DHT22;13887;57.196;-2.100;2023-07-31T07:10:10;16.66;84.17
22069;DHT22;13887;57.196;-2.100;2023-07-31T07:12:37;16.40;85.52
22069;DHT22;13887;57.196;-2.100;2023-07-31T07:15:05;16.32;85.57
22069;DHT22;13887;57.196;-2.100;2023-07-31T07:17:32;16.33;84.81
22069;DHT22;13887;57.196;-2.100;2023-07-31T07:20:00;16.33;84.42
22069;DHT22;13887;57.196;-2.100;2023-07-31T07:22:27;16.33;84.22
22069;DHT22;13887;57.196;-2.100;2023-07-31T07:24:55;16.33;84.23
22069;DHT22;13887;57.196;-2.100;2023-07-31T07:27:22;16.31;82.39
22069;DHT22;13887;57.196;-2.100;2023-07-31T07:29:52;16.33;81.97
22069;DHT22;13887;57.196;-2.100;2023-07-31T07:32:20;16.34;81.53
22069;DHT22;13887;57.196;-2.100;2023-07-31T07:34:48;16.34;81.74
22069;DHT22;13887;57.196;-2.100;2023-07-31T07:37:16;16.36;81.54
22069;DHT22;13887;57.196;-2.100;2023-07-31T07:39:43;16.35;81.69
22069;DHT22;13887;57.196;-2.100;2023-07-31T07:42:10;16.35;81.39
22069;DHT22;13887;57.196;-2.100;2023-07-31T07:44:38;16.37;81.47
22069;DHT22;13887;57.196;-2.100;2023-07-31T07:47:05;16.39;81.25
22069;DHT22;13887;57.196;-2.100;2023-07-31T07:49:34;16.41;81.50
22069;DHT22;13887;57.196;-2.100;2023-07-31T07:52:02;16.42;81.50
22069;DHT22;13887;57.196;-2.100;2023-07-31T07:54:30;16.42;81.54
22069;DHT22;13887;57.196;-2.100;2023-07-31T07:56:57;16.41;81.55
22069;DHT22;13887;57.196;-2.100;2023-07-31T07:59:25;16.43;82.37
22069;DHT22;13887;57.196;-2.100;2023-07-31T08:01:52;16.40;82.95
22069;DHT22;13887;57.196;-2.100;2023-07-31T08:04:19;16.42;82.31
22069;DHT22;13887;57.196;-2.100;2023-07-31T08:06:46;16.40;82.69
22069;DHT22;13887;57.196;-2.100;2023-07-31T08:09:13;16.41;82.62
22069;DHT22;13887;57.196;-2.100;2023-07-31T08:11:40;16.43;82.17
22069;DHT22;13887;57.196;-2.100;2023-07-31T08:14:07;16.45;82.17
22069;DHT22;13887;57.196;-2.100;2023-07-31T08:16:34;16.44;82.50
22069;DHT22;13887;57.196;-2.100;2023-07-31T08:19:02;16.47;82.22
22069;DHT22;13887;57.196;-2.100;2023-07-31T08:21:29;16.46;81.89
22069;DHT22;13887;57.196;-2.100;2023-07-31T08:23:56;16.45;81.94
22069;DHT22;13887;57.196;-2.100;2023-07-31T08:26:23;16.44;82.28
22069;DHT22;13887;57.196;-2.100;2023-07-31T08:28:51;16.43;82.07
22069;DHT22;13887;57.196;-2.100;2023-07-31T08:31:19;16.44;82.49
22069;DHT22;13887;57.196;-2.100;2023-07-31T08:33:46;16.45;82.39
22069;DHT22;13887;57.196;-2.100;2023-07-31T08:36:13;16.47;82.01
22069;DHT22;13887;57.196;-2.100;2023-07-31T08:38:40;16.46;82.10
22069;DHT22;13887;57.196;-2.100;2023-07-31T08:41:07;16.48;81.99
22069;DHT22;13887;57.196;-2.100;2023-07-31T08:43:35;16.50;81.69
22069;DHT22;13887;57.196;-2.100;2023-07-31T08:46:03;16.51;81.38
22069;DHT22;13887;57.196;-2.100;2023-07-31T08:48:31;16.52;81.07
22069;DHT22;13887;57.196;-2.100;2023-07-31T08:50:58;16.49;80.86
22069;DHT22;13887;57.196;-2.100;2023-07-31T08:53:26;16.52;80.62
22069;DHT22;13887;57.196;-2.100;2023-07-31T08:55:53;16.56;80.37
22069;DHT22;13887;57.196;-2.100;2023-07-31T08:58:22;16.56;80.32
22069;DHT22;13887;57.196;-2.100;2023-07-31T09:00:51;16.57;80.02
22069;DHT22;13887;57.196;-2.100;2023-07-31T09:03:23;16.55;80.21
22069;DHT22;13887;57.196;-2.100;2023-07-31T09:05:53;16.54;80.30
22069;DHT22;13887;57.196;-2.100;2023-07-31T09:08:22;16.55;80.17
22069;DHT22;13887;57.196;-2.100;2023-07-31T09:10:49;16.57;79.89
22069;DHT22;13887;57.196;-2.100;2023-07-31T09:13:17;16.57;80.11
22069;DHT22;13887;57.196;-2.100;2023-07-31T09:15:45;16.59;80.01
22069;DHT22;13887;57.196;-2.100;2023-07-31T09:18:13;16.59;80.28
22069;DHT22;13887;57.196;-2.100;2023-07-31T09:20:44;16.60;80.26
22069;DHT22;13887;57.196;-2.100;2023-07-31T09:23:13;16.62;80.20
22069;DHT22;13887;57.196;-2.100;2023-07-31T09:25:43;16.62;80.04
22069;DHT22;13887;57.196;-2.100;2023-07-31T09:28:11;16.62;80.05
22069;DHT22;13887;57.196;-2.100;2023-07-31T09:30:49;16.64;79.85
22069;DHT22;13887;57.196;-2.100;2023-07-31T09:33:20;16.64;79.63
22069;DHT22;13887;57.196;-2.100;2023-07-31T09:35:47;16.65;79.58
22069;DHT22;13887;57.196;-2.100;2023-07-31T09:38:18;16.66;79.40
22069;DHT22;13887;57.196;-2.100;2023-07-31T09:40:47;16.63;79.53
22069;DHT22;13887;57.196;-2.100;2023-07-31T09:43:19;16.64;79.53
22069;DHT22;13887;57.196;-2.100;2023-07-31T09:45:47;16.64;79.46
22069;DHT22;13887;57.196;-2.100;2023-07-31T09:48:16;16.65;79.38
22069;DHT22;13887;57.196;-2.100;2023-07-31T09:50:45;16.66;79.24
22069;DHT22;13887;57.196;-2.100;2023-07-31T09:53:14;16.70;79.15
22069;DHT22;13887;57.196;-2.100;2023-07-31T09:55:42;16.70;79.24
22069;DHT22;13887;57.196;-2.100;2023-07-31T09:58:12;16.70;79.33
22069;DHT22;13887;57.196;-2.100;2023-07-31T10:00:40;16.72;79.27
22069;DHT22;13887;57.196;-2.100;2023-07-31T10:03:09;16.69;79.44
22069;DHT22;13887;57.196;-2.100;2023-07-31T10:05:40;16.71;79.40
22069;DHT22;13887;57.196;-2.100;2023-07-31T10:08:10;16.74;79.37
22069;DHT22;13887;57.196;-2.100;2023-07-31T10:10:45;16.76;79.40
22069;DHT22;13887;57.196;-2.100;2023-07-31T10:13:13;16.79;79.43
22069;DHT22;13887;57.196;-2.100;2023-07-31T10:15:41;16.79;79.41
22069;DHT22;13887;57.196;-2.100;2023-07-31T10:18:11;16.81;79.59
22069;DHT22;13887;57.196;-2.100;2023-07-31T10:20:40;16.84;79.53
22069;DHT22;13887;57.196;-2.100;2023-07-31T10:23:08;16.82;79.18
22069;DHT22;13887;57.196;-2.100;2023-07-31T10:25:35;16.82;79.14
22069;DHT22;13887;57.196;-2.100;2023-07-31T10:28:03;16.81;79.21
22069;DHT22;13887;57.196;-2.100;2023-07-31T10:30:32;16.82;79.24
22069;DHT22;13887;57.196;-2.100;2023-07-31T10:33:00;16.86;79.11
22069;DHT22;13887;57.196;-2.100;2023-07-31T10:35:28;16.86;79.22
22069;DHT22;13887;57.196;-2.100;2023-07-31T10:38:09;16.84;79.59
22069;DHT22;13887;57.196;-2.100;2023-07-31T10:40:38;16.84;79.64
22069;DHT22;13887;57.196;-2.100;2023-07-31T10:43:06;16.90;79.38
22069;DHT22;13887;57.196;-2.100;2023-07-31T10:45:37;16.89;79.58
22069;DHT22;13887;57.196;-2.100;2023-07-31T10:48:07;16.87;79.50
22069;DHT22;13887;57.196;-2.100;2023-07-31T10:50:47;16.89;79.78
22069;DHT22;13887;57.196;-2.100;2023-07-31T10:53:32;16.92;79.73
22069;DHT22;13887;57.196;-2.100;2023-07-31T10:56:00;16.91;79.54
22069;DHT22;13887;57.196;-2.100;2023-07-31T10:58:28;16.94;79.43
22069;DHT22;13887;57.196;-2.100;2023-07-31T11:00:56;16.95;79.57
22069;DHT22;13887;57.196;-2.100;2023-07-31T11:03:51;16.98;79.47
22069;DHT22;13887;57.196;-2.100;2023-07-31T11:06:19;16.96;79.76
22069;DHT22;13887;57.196;-2.100;2023-07-31T11:08:50;16.96;79.76
22069;DHT22;13887;57.196;-2.100;2023-07-31T11:11:18;16.99;79.62
22069;DHT22;13887;57.196;-2.100;2023-07-31T11:13:48;16.99;79.88
22069;DHT22;13887;57.196;-2.100;2023-07-31T11:16:23;17.00;80.19
22069;DHT22;13887;57.196;-2.100;2023-07-31T11:18:52;16.99;80.00
22069;DHT22;13887;57.196;-2.100;2023-07-31T11:21:22;17.01;79.84
22069;DHT22;13887;57.196;-2.100;2023-07-31T11:23:51;17.00;79.80
22069;DHT22;13887;57.196;-2.100;2023-07-31T11:26:19;17.01;79.95
22069;DHT22;13887;57.196;-2.100;2023-07-31T11:28:47;17.01;80.38
22069;DHT22;13887;57.196;-2.100;2023-07-31T11:31:15;17.02;80.24
22069;DHT22;13887;57.196;-2.100;2023-07-31T11:33:42;16.99;80.56
22069;DHT22;13887;57.196;-2.100;2023-07-31T11:36:18;17.00;80.66
22069;DHT22;13887;57.196;-2.100;2023-07-31T11:38:45;17.02;80.87
22069;DHT22;13887;57.196;-2.100;2023-07-31T11:41:14;17.05;80.75
22069;DHT22;13887;57.196;-2.100;2023-07-31T11:43:45;17.06;80.59
22069;DHT22;13887;57.196;-2.100;2023-07-31T11:46:13;17.06;80.75
22069;DHT22;13887;57.196;-2.100;2023-07-31T11:48:42;17.05;81.25
22069;DHT22;13887;57.196;-2.100;2023-07-31T11:51:12;17.06;81.30
22069;DHT22;13887;57.196;-2.100;2023-07-31T11:53:57;17.08;81.13
22069;DHT22;13887;57.196;-2.100;2023-07-31T11:56:25;17.10;81.04
22069;DHT22;13887;57.196;-2.100;2023-07-31T11:58:57;17.09;81.04
22069;DHT22;13887;57.196;-2.100;2023-07-31T12:01:26;17.10;81.35
22069;DHT22;13887;57.196;-2.100;2023-07-31T12:03:55;17.10;81.32
22069;DHT22;13887;57.196;-2.100;2023-07-31T12:06:33;17.13;81.11
22069;DHT22;13887;57.196;-2.100;2023-07-31T12:09:02;17.15;81.03
22069;DHT22;13887;57.196;-2.100;2023-07-31T12:11:30;17.15;81.16
22069;DHT22;13887;57.196;-2.100;2023-07-31T12:13:57;17.13;81.04
22069;DHT22;13887;57.196;-2.100;2023-07-31T12:16:26;17.14;81.22
22069;DHT22;13887;57.196;-2.100;2023-07-31T12:18:54;17.15;81.28
22069;DHT22;13887;57.196;-2.100;2023-07-31T12:21:21;17.10;81.59
22069;DHT22;13887;57.196;-2.100;2023-07-31T12:23:49;17.10;81.60
22069;DHT22;13887;57.196;-2.100;2023-07-31T12:26:18;17.08;81.57
22069;DHT22;13887;57.196;-2.100;2023-07-31T12:28:49;17.08;81.72
22069;DHT22;13887;57.196;-2.100;2023-07-31T12:31:19;17.10;81.78
22069;DHT22;13887;57.196;-2.100;2023-07-31T12:33:49;17.13;81.78
22069;DHT22;13887;57.196;-2.100;2023-07-31T12:36:20;17.13;81.53
22069;DHT22;13887;57.196;-2.100;2023-07-31T12:38:49;17.14;81.68
22069;DHT22;13887;57.196;-2.100;2023-07-31T12:41:17;17.15;81.62
22069;DHT22;13887;57.196;-2.100;2023-07-31T12:43:45;17.09;82.07
22069;DHT22;13887;57.196;-2.100;2023-07-31T12:46:12;17.10;81.90
22069;DHT22;13887;57.196;-2.100;2023-07-31T12:48:40;17.09;81.94
22069;DHT22;13887;57.196;-2.100;2023-07-31T12:51:07;17.09;82.78
22069;DHT22;13887;57.196;-2.100;2023-07-31T12:53:35;17.06;82.38
22069;DHT22;13887;57.196;-2.100;2023-07-31T12:56:02;17.05;82.74
22069;DHT22;13887;57.196;-2.100;2023-07-31T12:58:30;17.04;83.16
22069;DHT22;13887;57.196;-2.100;2023-07-31T13:00:57;17.04;83.73
22069;DHT22;13887;57.196;-2.100;2023-07-31T13:03:25;17.03;84.73
22069;DHT22;13887;57.196;-2.100;2023-07-31T13:05:52;17.02;84.90
22069;DHT22;13887;57.196;-2.100;2023-07-31T13:08:19;17.00;85.58
22069;DHT22;13887;57.196;-2.100;2023-07-31T13:10:46;17.00;85.35
22069;DHT22;13887;57.196;-2.100;2023-07-31T13:13:14;16.95;85.86
22069;DHT22;13887;57.196;-2.100;2023-07-31T13:15:41;16.93;86.29
22069;DHT22;13887;57.196;-2.100;2023-07-31T13:18:09;16.93;86.61
22069;DHT22;13887;57.196;-2.100;2023-07-31T13:20:36;16.95;86.54
22069;DHT22;13887;57.196;-2.100;2023-07-31T13:23:03;16.94;86.46
22069;DHT22;13887;57.196;-2.100;2023-07-31T13:25:30;16.94;86.57
22069;DHT22;13887;57.196;-2.100;2023-07-31T13:27:57;16.89;87.04
22069;DHT22;13887;57.196;-2.100;2023-07-31T13:30:28;16.88;87.44
22069;DHT22;13887;57.196;-2.100;2023-07-31T13:32:56;16.88;87.21
22069;DHT22;13887;57.196;-2.100;2023-07-31T13:35:23;16.88;87.14
22069;DHT22;13887;57.196;-2.100;2023-07-31T13:37:50;16.86;87.48
22069;DHT22;13887;57.196;-2.100;2023-07-31T13:40:17;16.87;87.26
22069;DHT22;13887;57.196;-2.100;2023-07-31T13:42:44;16.89;87.21
22069;DHT22;13887;57.196;-2.100;2023-07-31T13:45:14;16.87;87.58
22069;DHT22;13887;57.196;-2.100;2023-07-31T13:47:41;16.89;87.32
22069;DHT22;13887;57.196;-2.100;2023-07-31T13:50:09;16.89;87.46
22069;DHT22;13887;57.196;-2.100;2023-07-31T13:52:36;16.87;87.62
22069;DHT22;13887;57.196;-2.100;2023-07-31T13:55:03;16.87;87.44
22069;DHT22;13887;57.196;-2.100;2023-07-31T13:57:30;16.87;87.70
22069;DHT22;13887;57.196;-2.100;2023-07-31T13:59:58;16.88;87.54
22069;DHT22;13887;57.196;-2.100;2023-07-31T14:02:25;16.86;87.80
22069;DHT22;13887;57.196;-2.100;2023-07-31T14:04:52;16.86;87.67
22069;DHT22;13887;57.196;-2.100;2023-07-31T14:07:19;16.86;87.62
22069;DHT22;13887;57.196;-2.100;2023-07-31T14:09:46;16.82;87.80
22069;DHT22;13887;57.196;-2.100;2023-07-31T14:12:13;16.79;88.14
22069;DHT22;13887;57.196;-2.100;2023-07-31T14:14:57;16.82;87.85
22069;DHT22;13887;57.196;-2.100;2023-07-31T14:17:24;16.84;87.85
22069;DHT22;13887;57.196;-2.100;2023-07-31T14:19:52;16.85;87.73
22069;DHT22;13887;57.196;-2.100;2023-07-31T14:22:29;16.85;87.61
22069;DHT22;13887;57.196;-2.100;2023-07-31T14:24:57;16.85;87.61
22069;DHT22;13887;57.196;-2.100;2023-07-31T14:27:24;16.84;87.62
22069;DHT22;13887;57.196;-2.100;2023-07-31T14:29:51;16.84;87.90
22069;DHT22;13887;57.196;-2.100;2023-07-31T14:32:18;16.81;87.91
22069;DHT22;13887;57.196;-2.100;2023-07-31T14:34:45;16.79;88.32
22069;DHT22;13887;57.196;-2.100;2023-07-31T14:37:13;16.76;88.48
22069;DHT22;13887;57.196;-2.100;2023-07-31T14:39:40;16.74;88.48
22069;DHT22;13887;57.196;-2.100;2023-07-31T14:42:07;16.78;88.25
22069;DHT22;13887;57.196;-2.100;2023-07-31T14:44:34;16.76;88.46
22069;DHT22;13887;57.196;-2.100;2023-07-31T14:47:01;16.76;88.22
22069;DHT22;13887;57.196;-2.100;2023-07-31T14:49:28;16.75;88.56
22069;DHT22;13887;57.196;-2.100;2023-07-31T14:51:56;16.76;88.59
22069;DHT22;13887;57.196;-2.100;2023-07-31T14:54:23;16.76;88.46
22069;DHT22;13887;57.196;-2.100;2023-07-31T14:56:50;16.77;88.61
22069;DHT22;13887;57.196;-2.100;2023-07-31T14:59:17;16.77;88.66
22069;DHT22;13887;57.196;-2.100;2023-07-31T15:01:44;16.76;88.76
22069;DHT22;13887;57.196;-2.100;2023-07-31T15:04:11;16.73;89.02
22069;DHT22;13887;57.196;-2.100;2023-07-31T15:06:38;16.66;89.28
22069;DHT22;13887;57.196;-2.100;2023-07-31T15:09:06;16.70;89.18
22069;DHT22;13887;57.196;-2.100;2023-07-31T15:11:34;16.69;89.34
22069;DHT22;13887;57.196;-2.100;2023-07-31T15:14:01;16.69;89.06
22069;DHT22;13887;57.196;-2.100;2023-07-31T15:16:28;16.70;89.11
22069;DHT22;13887;57.196;-2.100;2023-07-31T15:18:57;16.69;89.19
22069;DHT22;13887;57.196;-2.100;2023-07-31T15:21:24;16.66;89.20
22069;DHT22;13887;57.196;-2.100;2023-07-31T15:23:52;16.69;89.10
22069;DHT22;13887;57.196;-2.100;2023-07-31T15:26:19;16.65;89.42